ICX891 ESSA-EGPH
Flight info
| Callsign | ICX891 |
|---|---|
| Flight time | 1h 58m |
| Altitude | 38000 |
| Route | ARS N623 IBGAX DCT NIBNO DCT KLONN DCT ADN DCT NAXIL/N0392F240 P600 PTH |
| Aircraft | A320/M-SDE3FGHIRWY/LB1 |
Departure
| Time | 2026-04-20 02:01 |
|---|---|
| Airport | Stockholm-Arlanda Airport (ESSA) |
Arrival
| Time | 2026-04-20 04:00 |
|---|---|
| Airport | Edinburgh Airport (EGPH) |
| Time | Latitude | Longitude | Altitude | Speed | Heading |
|---|---|---|---|---|---|
| 2026-04-20 01:33 | 59.64436 | 17.92686 | 113 ft | 0 kts | 51° |
| 2026-04-20 01:48 | 59.64427 | 17.92664 | 112 ft | 4 kts | 51° |
| 2026-04-20 01:49 | 59.64404 | 17.92609 | 112 ft | 4 kts | 51° |
| 2026-04-20 01:49 | 59.64393 | 17.92581 | 111 ft | 4 kts | 51° |
| 2026-04-20 01:49 | 59.64376 | 17.92540 | 112 ft | 4 kts | 51° |
| 2026-04-20 01:49 | 59.64364 | 17.92510 | 112 ft | 0 kts | 51° |
| 2026-04-20 01:54 | 59.64365 | 17.92535 | 112 ft | 3 kts | 94° |
| 2026-04-20 01:55 | 59.64335 | 17.92558 | 112 ft | 7 kts | 181° |
| 2026-04-20 01:55 | 59.64283 | 17.92519 | 114 ft | 9 kts | 206° |
| 2026-04-20 01:55 | 59.64229 | 17.92454 | 116 ft | 8 kts | 231° |
| 2026-04-20 01:55 | 59.64241 | 17.92339 | 114 ft | 10 kts | 297° |
| 2026-04-20 01:56 | 59.64277 | 17.92200 | 116 ft | 14 kts | 297° |
| 2026-04-20 01:56 | 59.64281 | 17.92068 | 115 ft | 12 kts | 231° |
| 2026-04-20 01:56 | 59.64198 | 17.92021 | 115 ft | 13 kts | 189° |
| 2026-04-20 01:56 | 59.64134 | 17.91941 | 112 ft | 13 kts | 258° |
| 2026-04-20 01:57 | 59.64113 | 17.91828 | 113 ft | 10 kts | 209° |
| 2026-04-20 01:57 | 59.64029 | 17.91793 | 112 ft | 15 kts | 189° |
| 2026-04-20 01:57 | 59.63909 | 17.91750 | 110 ft | 19 kts | 189° |
| 2026-04-20 01:57 | 59.63789 | 17.91620 | 107 ft | 15 kts | 218° |
| 2026-04-20 01:58 | 59.63774 | 17.91596 | 107 ft | 0 kts | 221° |
| 2026-04-20 01:59 | 59.63766 | 17.91581 | 107 ft | 4 kts | 221° |
| 2026-04-20 01:59 | 59.63735 | 17.91522 | 106 ft | 8 kts | 233° |
| 2026-04-20 01:59 | 59.63732 | 17.91407 | 107 ft | 9 kts | 294° |
| 2026-04-20 02:00 | 59.63787 | 17.91346 | 110 ft | 12 kts | 0° |
| 2026-04-20 02:00 | 59.63801 | 17.91351 | 110 ft | 0 kts | 9° |
| 2026-04-20 02:00 | 59.63911 | 17.91390 | 110 ft | 54 kts | 10° |
| 2026-04-20 02:01 | 59.64541 | 17.91621 | 110 ft | 126 kts | 11° |
| 2026-04-20 02:01 | 59.65565 | 17.91986 | 338 ft | 157 kts | 10° |
| 2026-04-20 02:01 | 59.66638 | 17.92365 | 1109 ft | 157 kts | 10° |
| 2026-04-20 02:01 | 59.67715 | 17.92743 | 1941 ft | 157 kts | 9° |
| 2026-04-20 02:02 | 59.68845 | 17.92449 | 2426 ft | 182 kts | 332° |
| 2026-04-20 02:02 | 59.69669 | 17.90327 | 2783 ft | 216 kts | 285° |
| 2026-04-20 02:02 | 59.69721 | 17.87307 | 3573 ft | 225 kts | 268° |
| 2026-04-20 02:02 | 59.69514 | 17.84194 | 3909 ft | 229 kts | 263° |
| 2026-04-20 02:03 | 59.69232 | 17.81089 | 3999 ft | 229 kts | 262° |
| 2026-04-20 02:03 | 59.68942 | 17.78032 | 4016 ft | 230 kts | 257° |
| 2026-04-20 02:03 | 59.68378 | 17.74927 | 4331 ft | 252 kts | 251° |
| 2026-04-20 02:03 | 59.67771 | 17.71500 | 4886 ft | 273 kts | 252° |
| 2026-04-20 02:04 | 59.67166 | 17.67881 | 5731 ft | 280 kts | 250° |
| 2026-04-20 02:04 | 59.66253 | 17.64457 | 6659 ft | 284 kts | 232° |
| 2026-04-20 02:04 | 59.64895 | 17.61598 | 7595 ft | 287 kts | 222° |
| 2026-04-20 02:04 | 59.63452 | 17.58823 | 8512 ft | 292 kts | 226° |
| 2026-04-20 02:05 | 59.62247 | 17.55562 | 9387 ft | 298 kts | 241° |
| 2026-04-20 02:05 | 59.61480 | 17.51740 | 10214 ft | 303 kts | 257° |
| 2026-04-20 02:05 | 59.61203 | 17.47575 | 10875 ft | 315 kts | 268° |
| 2026-04-20 02:05 | 59.61079 | 17.43096 | 11178 ft | 339 kts | 268° |
| 2026-04-20 02:06 | 59.60951 | 17.38306 | 11601 ft | 356 kts | 268° |
| 2026-04-20 02:06 | 59.60815 | 17.33382 | 12307 ft | 363 kts | 267° |
| 2026-04-20 02:06 | 59.60671 | 17.28374 | 13063 ft | 367 kts | 267° |
| 2026-04-20 02:06 | 59.60522 | 17.23309 | 13808 ft | 371 kts | 267° |
| 2026-04-20 02:07 | 59.60367 | 17.18192 | 14524 ft | 376 kts | 266° |
| 2026-04-20 02:07 | 59.60205 | 17.13025 | 15233 ft | 379 kts | 266° |
| 2026-04-20 02:07 | 59.60041 | 17.07809 | 15942 ft | 382 kts | 266° |
| 2026-04-20 02:07 | 59.59875 | 17.02547 | 16624 ft | 386 kts | 266° |
| 2026-04-20 02:08 | 59.59707 | 16.97243 | 17276 ft | 389 kts | 266° |
| 2026-04-20 02:08 | 59.59533 | 16.91884 | 17897 ft | 393 kts | 266° |
| 2026-04-20 02:08 | 59.59353 | 16.86479 | 18523 ft | 397 kts | 266° |
| 2026-04-20 02:08 | 59.59169 | 16.81031 | 19140 ft | 400 kts | 266° |
| 2026-04-20 02:09 | 59.58984 | 16.75607 | 19739 ft | 403 kts | 266° |
| 2026-04-20 02:09 | 59.58795 | 16.70055 | 20344 ft | 407 kts | 266° |
| 2026-04-20 02:09 | 59.58794 | 16.64461 | 20930 ft | 410 kts | 275° |
| 2026-04-20 02:09 | 59.59237 | 16.58884 | 21501 ft | 413 kts | 282° |
| 2026-04-20 02:10 | 59.59813 | 16.53300 | 22063 ft | 416 kts | 282° |
| 2026-04-20 02:10 | 59.60387 | 16.47674 | 22605 ft | 420 kts | 282° |
| 2026-04-20 02:10 | 59.60961 | 16.42000 | 23104 ft | 424 kts | 281° |
| 2026-04-20 02:10 | 59.61537 | 16.36271 | 23589 ft | 427 kts | 281° |
| 2026-04-20 02:11 | 59.62111 | 16.30497 | 24067 ft | 430 kts | 281° |
| 2026-04-20 02:11 | 59.62685 | 16.24671 | 24519 ft | 434 kts | 281° |
| 2026-04-20 02:11 | 59.63275 | 16.18804 | 24975 ft | 436 kts | 282° |
| 2026-04-20 02:11 | 59.63918 | 16.12938 | 25423 ft | 438 kts | 283° |
| 2026-04-20 02:12 | 59.64602 | 16.07045 | 25864 ft | 440 kts | 283° |
| 2026-04-20 02:12 | 59.65304 | 16.01137 | 26286 ft | 442 kts | 283° |
| 2026-04-20 02:12 | 59.66009 | 15.95212 | 26707 ft | 444 kts | 283° |
| 2026-04-20 02:12 | 59.66709 | 15.89251 | 27117 ft | 446 kts | 283° |
| 2026-04-20 02:13 | 59.67398 | 15.83259 | 27519 ft | 447 kts | 283° |
| 2026-04-20 02:13 | 59.68077 | 15.77249 | 27896 ft | 449 kts | 283° |
| 2026-04-20 02:13 | 59.68750 | 15.71194 | 28276 ft | 451 kts | 283° |
| 2026-04-20 02:13 | 59.69419 | 15.65126 | 28651 ft | 452 kts | 283° |
| 2026-04-20 02:14 | 59.70092 | 15.59034 | 29003 ft | 454 kts | 283° |
| 2026-04-20 02:14 | 59.70766 | 15.52910 | 29347 ft | 455 kts | 283° |
| 2026-04-20 02:14 | 59.71441 | 15.46769 | 29661 ft | 457 kts | 283° |
| 2026-04-20 02:14 | 59.72061 | 15.40675 | 29961 ft | 459 kts | 278° |
| 2026-04-20 02:15 | 59.72319 | 15.34368 | 30255 ft | 460 kts | 272° |
| 2026-04-20 02:15 | 59.72417 | 15.28016 | 30530 ft | 462 kts | 272° |
| 2026-04-20 02:15 | 59.72519 | 15.21640 | 30785 ft | 464 kts | 272° |
| 2026-04-20 02:15 | 59.72623 | 15.15233 | 31024 ft | 466 kts | 271° |
| 2026-04-20 02:16 | 59.72726 | 15.08799 | 31256 ft | 468 kts | 271° |
| 2026-04-20 02:16 | 59.72825 | 15.02343 | 31508 ft | 469 kts | 271° |
| 2026-04-20 02:16 | 59.72918 | 14.95903 | 31820 ft | 468 kts | 271° |
| 2026-04-20 02:16 | 59.73006 | 14.89449 | 32114 ft | 468 kts | 271° |
| 2026-04-20 02:17 | 59.73092 | 14.83008 | 32415 ft | 467 kts | 271° |
| 2026-04-20 02:17 | 59.73173 | 14.76566 | 32710 ft | 467 kts | 271° |
| 2026-04-20 02:17 | 59.73251 | 14.70137 | 32990 ft | 467 kts | 271° |
| 2026-04-20 02:17 | 59.73328 | 14.63689 | 33279 ft | 467 kts | 271° |
| 2026-04-20 02:18 | 59.73404 | 14.57259 | 33567 ft | 467 kts | 270° |
| 2026-04-20 02:18 | 59.73477 | 14.50833 | 33860 ft | 466 kts | 270° |
| 2026-04-20 02:18 | 59.73544 | 14.44411 | 34151 ft | 466 kts | 270° |
| 2026-04-20 02:18 | 59.73606 | 14.38001 | 34434 ft | 465 kts | 270° |
| 2026-04-20 02:19 | 59.73664 | 14.31583 | 34706 ft | 465 kts | 270° |
| 2026-04-20 02:19 | 59.73717 | 14.25177 | 34978 ft | 465 kts | 270° |
| 2026-04-20 02:19 | 59.73771 | 14.18773 | 35239 ft | 465 kts | 270° |
| 2026-04-20 02:19 | 59.73823 | 14.12438 | 35482 ft | 466 kts | 270° |
| 2026-04-20 02:20 | 59.73873 | 14.06016 | 35719 ft | 466 kts | 270° |
| 2026-04-20 02:20 | 59.73919 | 13.99505 | 35954 ft | 466 kts | 270° |
| 2026-04-20 02:20 | 59.73959 | 13.93160 | 36177 ft | 467 kts | 270° |
| 2026-04-20 02:20 | 59.73996 | 13.86728 | 36394 ft | 467 kts | 270° |
| 2026-04-20 02:21 | 59.74064 | 13.73883 | 36907 ft | 464 kts | 270° |
| 2026-04-20 02:21 | 59.74096 | 13.67516 | 37228 ft | 460 kts | 270° |
| 2026-04-20 02:21 | 59.74123 | 13.61177 | 37468 ft | 459 kts | 270° |
| 2026-04-20 02:22 | 59.74145 | 13.54843 | 37652 ft | 459 kts | 270° |
| 2026-04-20 02:22 | 59.74162 | 13.48517 | 37829 ft | 460 kts | 270° |
| 2026-04-20 02:22 | 59.74177 | 13.42175 | 38002 ft | 460 kts | 270° |
| 2026-04-20 02:22 | 59.74192 | 13.35830 | 38180 ft | 460 kts | 270° |
| 2026-04-20 02:23 | 59.74206 | 13.29488 | 38357 ft | 460 kts | 270° |
| 2026-04-20 02:23 | 59.74217 | 13.16789 | 38431 ft | 461 kts | 270° |
| 2026-04-20 02:24 | 59.74207 | 13.04095 | 38430 ft | 460 kts | 270° |
| 2026-04-20 02:24 | 59.74195 | 12.91415 | 38430 ft | 460 kts | 270° |
| 2026-04-20 02:25 | 59.74176 | 12.78746 | 38427 ft | 460 kts | 270° |
| 2026-04-20 02:25 | 59.74142 | 12.66061 | 38439 ft | 460 kts | 270° |
| 2026-04-20 02:26 | 59.74093 | 12.53377 | 38431 ft | 460 kts | 269° |
| 2026-04-20 02:26 | 59.74026 | 12.40778 | 38441 ft | 460 kts | 269° |
| 2026-04-20 02:27 | 59.73227 | 12.28253 | 38435 ft | 459 kts | 258° |
| 2026-04-20 02:27 | 59.71962 | 12.15842 | 38434 ft | 459 kts | 258° |
| 2026-04-20 02:28 | 59.70700 | 12.03438 | 38439 ft | 459 kts | 258° |
| 2026-04-20 02:28 | 59.69421 | 11.91047 | 38433 ft | 459 kts | 258° |
| 2026-04-20 02:29 | 59.68122 | 11.78669 | 38434 ft | 459 kts | 258° |
| 2026-04-20 02:29 | 59.66804 | 11.66302 | 38429 ft | 460 kts | 258° |
| 2026-04-20 02:30 | 59.65481 | 11.53930 | 38429 ft | 460 kts | 258° |
| 2026-04-20 02:30 | 59.64149 | 11.41568 | 38437 ft | 460 kts | 257° |
| 2026-04-20 02:31 | 59.62811 | 11.29200 | 38432 ft | 460 kts | 257° |
| 2026-04-20 02:31 | 59.61470 | 11.16926 | 38435 ft | 460 kts | 257° |
| 2026-04-20 02:32 | 59.60104 | 11.04575 | 38423 ft | 461 kts | 257° |
| 2026-04-20 02:32 | 59.58726 | 10.92220 | 38427 ft | 461 kts | 257° |
| 2026-04-20 02:33 | 59.57332 | 10.79876 | 38421 ft | 461 kts | 257° |
| 2026-04-20 02:33 | 59.55917 | 10.67535 | 38418 ft | 461 kts | 257° |
| 2026-04-20 02:34 | 59.54490 | 10.55195 | 38421 ft | 462 kts | 257° |
| 2026-04-20 02:34 | 59.53055 | 10.42845 | 38431 ft | 462 kts | 257° |
| 2026-04-20 02:35 | 59.51612 | 10.30502 | 38419 ft | 463 kts | 257° |
| 2026-04-20 02:35 | 59.50154 | 10.18157 | 38428 ft | 463 kts | 256° |
| 2026-04-20 02:36 | 59.48681 | 10.05809 | 38426 ft | 463 kts | 256° |
| 2026-04-20 02:36 | 59.47196 | 9.93471 | 38421 ft | 464 kts | 256° |
| 2026-04-20 02:37 | 59.45704 | 9.81133 | 38432 ft | 464 kts | 256° |
| 2026-04-20 02:37 | 59.44209 | 9.68885 | 38421 ft | 464 kts | 256° |
| 2026-04-20 02:38 | 59.42684 | 9.56550 | 38419 ft | 465 kts | 256° |
| 2026-04-20 02:38 | 59.41152 | 9.44218 | 38430 ft | 465 kts | 256° |
| 2026-04-20 02:39 | 59.39607 | 9.31893 | 38421 ft | 465 kts | 256° |
| 2026-04-20 02:39 | 59.38050 | 9.19579 | 38426 ft | 465 kts | 256° |
| 2026-04-20 02:40 | 59.36483 | 9.07272 | 38423 ft | 465 kts | 255° |
| 2026-04-20 02:40 | 59.34892 | 8.94985 | 38422 ft | 465 kts | 255° |
| 2026-04-20 02:41 | 59.33295 | 8.82705 | 38427 ft | 465 kts | 255° |
| 2026-04-20 02:41 | 59.31701 | 8.70443 | 38418 ft | 465 kts | 255° |
| 2026-04-20 02:42 | 59.30092 | 8.58202 | 38421 ft | 464 kts | 255° |
| 2026-04-20 02:42 | 59.28738 | 8.48044 | 38413 ft | 464 kts | 255° |
| 2026-04-20 02:43 | 59.27106 | 8.35829 | 38408 ft | 464 kts | 255° |
| 2026-04-20 02:43 | 59.25457 | 8.23619 | 38405 ft | 465 kts | 255° |
| 2026-04-20 02:44 | 59.23790 | 8.11408 | 38403 ft | 465 kts | 255° |
| 2026-04-20 02:44 | 59.22115 | 7.99199 | 38402 ft | 466 kts | 255° |
| 2026-04-20 02:45 | 59.20436 | 7.86986 | 38393 ft | 466 kts | 255° |
| 2026-04-20 02:45 | 59.18741 | 7.74780 | 38384 ft | 466 kts | 254° |
| 2026-04-20 02:46 | 59.17030 | 7.62601 | 38380 ft | 466 kts | 254° |
| 2026-04-20 02:46 | 59.15321 | 7.50523 | 38378 ft | 466 kts | 254° |
| 2026-04-20 02:47 | 59.13575 | 7.38271 | 38379 ft | 466 kts | 254° |
| 2026-04-20 02:47 | 59.11843 | 7.26194 | 38378 ft | 466 kts | 254° |
| 2026-04-20 02:48 | 59.10084 | 7.14047 | 38374 ft | 466 kts | 254° |
| 2026-04-20 02:48 | 59.08320 | 7.01915 | 38366 ft | 466 kts | 254° |
| 2026-04-20 02:49 | 59.06544 | 6.89804 | 38362 ft | 466 kts | 253° |
| 2026-04-20 02:49 | 59.04755 | 6.77718 | 38359 ft | 465 kts | 253° |
| 2026-04-20 02:50 | 59.02959 | 6.65645 | 38352 ft | 465 kts | 253° |
| 2026-04-20 02:50 | 59.01152 | 6.53582 | 38350 ft | 465 kts | 253° |
| 2026-04-20 02:51 | 58.99339 | 6.41553 | 38348 ft | 464 kts | 253° |
| 2026-04-20 02:51 | 58.97656 | 6.30502 | 38346 ft | 464 kts | 253° |
| 2026-04-20 02:52 | 58.95822 | 6.18516 | 38343 ft | 464 kts | 253° |
| 2026-04-20 02:52 | 58.94018 | 6.06784 | 38341 ft | 464 kts | 253° |
| 2026-04-20 02:53 | 58.92163 | 5.94825 | 38340 ft | 464 kts | 253° |
| 2026-04-20 02:53 | 58.90293 | 5.82885 | 38338 ft | 464 kts | 253° |
| 2026-04-20 02:54 | 58.88410 | 5.70951 | 38337 ft | 464 kts | 253° |
| 2026-04-20 02:54 | 58.86515 | 5.59024 | 38338 ft | 464 kts | 253° |
| 2026-04-20 02:55 | 58.84615 | 5.47104 | 38340 ft | 464 kts | 252° |
| 2026-04-20 02:55 | 58.82697 | 5.35191 | 38341 ft | 465 kts | 252° |
| 2026-04-20 02:56 | 58.80770 | 5.23284 | 38342 ft | 465 kts | 252° |
| 2026-04-20 02:56 | 58.78827 | 5.11392 | 38344 ft | 465 kts | 252° |
| 2026-04-20 02:57 | 58.76879 | 4.99502 | 38349 ft | 465 kts | 252° |
| 2026-04-20 02:57 | 58.74922 | 4.87622 | 38343 ft | 465 kts | 252° |
| 2026-04-20 02:58 | 58.72949 | 4.75766 | 38340 ft | 465 kts | 252° |
| 2026-04-20 02:58 | 58.70963 | 4.63932 | 38339 ft | 465 kts | 252° |
| 2026-04-20 02:59 | 58.69027 | 4.52419 | 38335 ft | 464 kts | 252° |
| 2026-04-20 02:59 | 58.67027 | 4.40615 | 38330 ft | 464 kts | 252° |
| 2026-04-20 03:00 | 58.65019 | 4.28833 | 38328 ft | 464 kts | 252° |
| 2026-04-20 03:00 | 58.62997 | 4.17068 | 38326 ft | 464 kts | 252° |
| 2026-04-20 03:01 | 58.60965 | 4.05321 | 38319 ft | 464 kts | 252° |
| 2026-04-20 03:01 | 58.58931 | 3.93590 | 38314 ft | 464 kts | 252° |
| 2026-04-20 03:02 | 58.56877 | 3.81873 | 38312 ft | 464 kts | 251° |
| 2026-04-20 03:02 | 58.54810 | 3.70166 | 38307 ft | 464 kts | 251° |
| 2026-04-20 03:03 | 58.52732 | 3.58471 | 38304 ft | 464 kts | 251° |
| 2026-04-20 03:03 | 58.50648 | 3.46799 | 38297 ft | 464 kts | 251° |
| 2026-04-20 03:04 | 58.48554 | 3.35139 | 38294 ft | 464 kts | 251° |
| 2026-04-20 03:04 | 58.46452 | 3.23495 | 38287 ft | 464 kts | 251° |
| 2026-04-20 03:05 | 58.44336 | 3.11859 | 38285 ft | 464 kts | 251° |
| 2026-04-20 03:05 | 58.42224 | 3.00312 | 38278 ft | 464 kts | 251° |
| 2026-04-20 03:06 | 58.40090 | 2.88708 | 38274 ft | 464 kts | 251° |
| 2026-04-20 03:06 | 58.37938 | 2.77110 | 38270 ft | 464 kts | 251° |
| 2026-04-20 03:07 | 58.35774 | 2.65531 | 38268 ft | 464 kts | 251° |
| 2026-04-20 03:07 | 58.33600 | 2.53967 | 38267 ft | 464 kts | 251° |
| 2026-04-20 03:08 | 58.31411 | 2.42412 | 38266 ft | 464 kts | 251° |
| 2026-04-20 03:08 | 58.29214 | 2.30867 | 38266 ft | 464 kts | 251° |
| 2026-04-20 03:09 | 58.27003 | 2.19333 | 38270 ft | 465 kts | 250° |
| 2026-04-20 03:09 | 58.24779 | 2.07807 | 38269 ft | 464 kts | 250° |
| 2026-04-20 03:10 | 58.22548 | 1.96313 | 38270 ft | 464 kts | 250° |
| 2026-04-20 03:10 | 58.20304 | 1.84833 | 38269 ft | 464 kts | 250° |
| 2026-04-20 03:11 | 58.18055 | 1.73362 | 38266 ft | 464 kts | 250° |
| 2026-04-20 03:11 | 58.15810 | 1.61986 | 38265 ft | 464 kts | 250° |
| 2026-04-20 03:12 | 58.13537 | 1.50546 | 38266 ft | 464 kts | 250° |
| 2026-04-20 03:12 | 58.11254 | 1.39123 | 38264 ft | 464 kts | 250° |
| 2026-04-20 03:13 | 58.08958 | 1.27705 | 38263 ft | 464 kts | 250° |
| 2026-04-20 03:13 | 58.06656 | 1.16301 | 38265 ft | 465 kts | 250° |
| 2026-04-20 03:14 | 58.04343 | 1.04900 | 38268 ft | 465 kts | 250° |
| 2026-04-20 03:14 | 58.02017 | 0.93515 | 38268 ft | 465 kts | 250° |
| 2026-04-20 03:15 | 57.99684 | 0.82138 | 38268 ft | 465 kts | 250° |
| 2026-04-20 03:15 | 57.97334 | 0.70778 | 38272 ft | 465 kts | 250° |
| 2026-04-20 03:16 | 57.94979 | 0.59435 | 38281 ft | 465 kts | 250° |
| 2026-04-20 03:16 | 57.92611 | 0.48107 | 38280 ft | 465 kts | 250° |
| 2026-04-20 03:17 | 57.90234 | 0.36788 | 38284 ft | 465 kts | 249° |
| 2026-04-20 03:17 | 57.87849 | 0.25478 | 38290 ft | 466 kts | 249° |
| 2026-04-20 03:18 | 57.85442 | 0.14173 | 38293 ft | 466 kts | 249° |
| 2026-04-20 03:18 | 57.83030 | 0.02883 | 38293 ft | 466 kts | 249° |
| 2026-04-20 03:19 | 57.80611 | -0.08405 | 38297 ft | 466 kts | 249° |
| 2026-04-20 03:19 | 57.78194 | -0.19570 | 38305 ft | 465 kts | 250° |
| 2026-04-20 03:20 | 57.75760 | -0.30794 | 38309 ft | 465 kts | 250° |
| 2026-04-20 03:20 | 57.73303 | -0.42065 | 38312 ft | 464 kts | 249° |
| 2026-04-20 03:21 | 57.70863 | -0.53150 | 38316 ft | 464 kts | 249° |
| 2026-04-20 03:21 | 57.68396 | -0.64307 | 38318 ft | 464 kts | 249° |
| 2026-04-20 03:22 | 57.65932 | -0.75448 | 38319 ft | 464 kts | 249° |
| 2026-04-20 03:22 | 57.63453 | -0.86573 | 38323 ft | 464 kts | 249° |
| 2026-04-20 03:23 | 57.60955 | -0.97678 | 38325 ft | 464 kts | 249° |
| 2026-04-20 03:23 | 57.58456 | -1.08773 | 38326 ft | 464 kts | 249° |
| 2026-04-20 03:24 | 57.55942 | -1.19854 | 38326 ft | 464 kts | 249° |
| 2026-04-20 03:24 | 57.53421 | -1.30931 | 38328 ft | 464 kts | 249° |
| 2026-04-20 03:25 | 57.50891 | -1.41988 | 38330 ft | 465 kts | 249° |
| 2026-04-20 03:25 | 57.48351 | -1.53046 | 38331 ft | 465 kts | 248° |
| 2026-04-20 03:26 | 57.45793 | -1.64095 | 38336 ft | 465 kts | 248° |
| 2026-04-20 03:26 | 57.43247 | -1.75050 | 38340 ft | 466 kts | 248° |
| 2026-04-20 03:27 | 57.40671 | -1.86078 | 38342 ft | 466 kts | 248° |
| 2026-04-20 03:27 | 57.38083 | -1.97081 | 38345 ft | 466 kts | 248° |
| 2026-04-20 03:28 | 57.35483 | -2.08079 | 38345 ft | 466 kts | 248° |
| 2026-04-20 03:28 | 57.31193 | -2.24242 | 37297 ft | 475 kts | 234° |
| 2026-04-20 03:29 | 57.29024 | -2.28843 | 36506 ft | 475 kts | 225° |
| 2026-04-20 03:29 | 57.26467 | -2.32725 | 35620 ft | 477 kts | 216° |
| 2026-04-20 03:29 | 57.23729 | -2.36238 | 34626 ft | 481 kts | 216° |
| 2026-04-20 03:29 | 57.20983 | -2.39777 | 33740 ft | 482 kts | 216° |
| 2026-04-20 03:30 | 57.18230 | -2.43343 | 32639 ft | 485 kts | 216° |
| 2026-04-20 03:30 | 57.15463 | -2.46935 | 31499 ft | 489 kts | 216° |
| 2026-04-20 03:30 | 57.12701 | -2.50520 | 30918 ft | 479 kts | 217° |
| 2026-04-20 03:30 | 57.09991 | -2.54028 | 30200 ft | 474 kts | 217° |
| 2026-04-20 03:31 | 57.07301 | -2.57501 | 29502 ft | 469 kts | 217° |
| 2026-04-20 03:31 | 57.04645 | -2.60920 | 28811 ft | 464 kts | 217° |
| 2026-04-20 03:31 | 57.02049 | -2.64251 | 28141 ft | 459 kts | 217° |
| 2026-04-20 03:31 | 56.99445 | -2.67576 | 27470 ft | 454 kts | 216° |
| 2026-04-20 03:32 | 56.96863 | -2.70859 | 26819 ft | 449 kts | 216° |
| 2026-04-20 03:32 | 56.94308 | -2.74104 | 26183 ft | 444 kts | 217° |
| 2026-04-20 03:32 | 56.91779 | -2.77306 | 25550 ft | 439 kts | 216° |
| 2026-04-20 03:32 | 56.89284 | -2.80468 | 24934 ft | 434 kts | 217° |
| 2026-04-20 03:33 | 56.86818 | -2.83602 | 24344 ft | 428 kts | 217° |
| 2026-04-20 03:33 | 56.84389 | -2.86691 | 23763 ft | 423 kts | 217° |
| 2026-04-20 03:33 | 56.81987 | -2.89735 | 23220 ft | 418 kts | 217° |
| 2026-04-20 03:33 | 56.79613 | -2.92734 | 22689 ft | 413 kts | 216° |
| 2026-04-20 03:34 | 56.77263 | -2.95699 | 22181 ft | 408 kts | 217° |
| 2026-04-20 03:34 | 56.74942 | -2.98626 | 21673 ft | 404 kts | 216° |
| 2026-04-20 03:34 | 56.72636 | -3.01526 | 21162 ft | 401 kts | 216° |
| 2026-04-20 03:34 | 56.70354 | -3.04392 | 20645 ft | 397 kts | 216° |
| 2026-04-20 03:35 | 56.68086 | -3.07229 | 20118 ft | 394 kts | 216° |
| 2026-04-20 03:35 | 56.66595 | -3.09087 | 19783 ft | 392 kts | 216° |
| 2026-04-20 03:35 | 56.64351 | -3.11885 | 19246 ft | 389 kts | 216° |
| 2026-04-20 03:35 | 56.61411 | -3.15557 | 18531 ft | 386 kts | 216° |
| 2026-04-20 03:36 | 56.59205 | -3.18306 | 17996 ft | 383 kts | 216° |
| 2026-04-20 03:36 | 56.57014 | -3.21033 | 17466 ft | 381 kts | 216° |
| 2026-04-20 03:36 | 56.54835 | -3.23739 | 16930 ft | 378 kts | 216° |
| 2026-04-20 03:36 | 56.52668 | -3.26422 | 16404 ft | 376 kts | 216° |
| 2026-04-20 03:37 | 56.51213 | -3.28221 | 16045 ft | 374 kts | 216° |
| 2026-04-20 03:37 | 56.49072 | -3.30869 | 15522 ft | 371 kts | 216° |
| 2026-04-20 03:37 | 56.46974 | -3.33461 | 15006 ft | 369 kts | 216° |
| 2026-04-20 03:37 | 56.44864 | -3.36068 | 14478 ft | 366 kts | 216° |
| 2026-04-20 03:38 | 56.42775 | -3.38671 | 13963 ft | 363 kts | 216° |
| 2026-04-20 03:38 | 56.40725 | -3.41308 | 13428 ft | 360 kts | 217° |
| 2026-04-20 03:38 | 56.38704 | -3.43951 | 12911 ft | 357 kts | 217° |
| 2026-04-20 03:38 | 56.36704 | -3.46581 | 12375 ft | 354 kts | 217° |
| 2026-04-20 03:39 | 56.34721 | -3.49188 | 11845 ft | 351 kts | 217° |
| 2026-04-20 03:39 | 56.32748 | -3.51761 | 11300 ft | 349 kts | 217° |
| 2026-04-20 03:39 | 56.30785 | -3.54298 | 10799 ft | 345 kts | 217° |
| 2026-04-20 03:39 | 56.28875 | -3.56746 | 10652 ft | 330 kts | 217° |
| 2026-04-20 03:40 | 56.27045 | -3.59083 | 10528 ft | 316 kts | 217° |
| 2026-04-20 03:40 | 56.25291 | -3.61324 | 10400 ft | 303 kts | 217° |
| 2026-04-20 03:40 | 56.23602 | -3.63486 | 10195 ft | 294 kts | 217° |
| 2026-04-20 03:40 | 56.21940 | -3.65614 | 9803 ft | 293 kts | 217° |
| 2026-04-20 03:41 | 56.20304 | -3.67744 | 9481 ft | 288 kts | 221° |
| 2026-04-20 03:41 | 56.18913 | -3.70276 | 8980 ft | 281 kts | 234° |
| 2026-04-20 03:41 | 56.17738 | -3.73069 | 8265 ft | 280 kts | 235° |
| 2026-04-20 03:41 | 56.16568 | -3.75842 | 7710 ft | 277 kts | 235° |
| 2026-04-20 03:42 | 56.15428 | -3.78529 | 7396 ft | 260 kts | 235° |
| 2026-04-20 03:42 | 56.14354 | -3.81056 | 7356 ft | 253 kts | 235° |
| 2026-04-20 03:42 | 56.13294 | -3.83558 | 7357 ft | 252 kts | 235° |
| 2026-04-20 03:42 | 56.12001 | -3.85827 | 7357 ft | 267 kts | 212° |
| 2026-04-20 03:43 | 56.10275 | -3.86784 | 7355 ft | 260 kts | 182° |
| 2026-04-20 03:43 | 56.08523 | -3.86112 | 7358 ft | 261 kts | 152° |
| 2026-04-20 03:43 | 56.07178 | -3.83996 | 7358 ft | 260 kts | 122° |
| 2026-04-20 03:43 | 56.06590 | -3.80997 | 7356 ft | 257 kts | 91° |
| 2026-04-20 03:44 | 56.06832 | -3.77872 | 7360 ft | 255 kts | 72° |
| 2026-04-20 03:44 | 56.07350 | -3.74839 | 7356 ft | 255 kts | 70° |
| 2026-04-20 03:44 | 56.07900 | -3.71827 | 7357 ft | 255 kts | 69° |
| 2026-04-20 03:44 | 56.08455 | -3.68813 | 7355 ft | 255 kts | 69° |
| 2026-04-20 03:45 | 56.09010 | -3.65806 | 7357 ft | 255 kts | 69° |
| 2026-04-20 03:45 | 56.09567 | -3.62796 | 7356 ft | 254 kts | 69° |
| 2026-04-20 03:45 | 56.10122 | -3.59787 | 7360 ft | 255 kts | 69° |
| 2026-04-20 03:45 | 56.10778 | -3.56865 | 7355 ft | 252 kts | 54° |
| 2026-04-20 03:46 | 56.11919 | -3.54580 | 7359 ft | 249 kts | 41° |
| 2026-04-20 03:46 | 56.13197 | -3.52478 | 7357 ft | 249 kts | 39° |
| 2026-04-20 03:46 | 56.14485 | -3.50400 | 7357 ft | 249 kts | 39° |
| 2026-04-20 03:46 | 56.15772 | -3.48322 | 7356 ft | 249 kts | 39° |
| 2026-04-20 03:47 | 56.17059 | -3.46243 | 7356 ft | 249 kts | 39° |
| 2026-04-20 03:47 | 56.18344 | -3.44166 | 7357 ft | 249 kts | 39° |
| 2026-04-20 03:47 | 56.19629 | -3.42089 | 7358 ft | 249 kts | 39° |
| 2026-04-20 03:47 | 56.20916 | -3.40010 | 7357 ft | 249 kts | 39° |
| 2026-04-20 03:48 | 56.22200 | -3.37934 | 7358 ft | 249 kts | 39° |
| 2026-04-20 03:48 | 56.23486 | -3.35855 | 7356 ft | 249 kts | 39° |
| 2026-04-20 03:48 | 56.24772 | -3.33776 | 7356 ft | 248 kts | 39° |
| 2026-04-20 03:48 | 56.26056 | -3.31698 | 7358 ft | 248 kts | 39° |
| 2026-04-20 03:49 | 56.27178 | -3.29338 | 7353 ft | 252 kts | 62° |
| 2026-04-20 03:49 | 56.27737 | -3.26338 | 7358 ft | 254 kts | 73° |
| 2026-04-20 03:49 | 56.28156 | -3.23241 | 7359 ft | 255 kts | 74° |
| 2026-04-20 03:49 | 56.28559 | -3.20133 | 7358 ft | 255 kts | 75° |
| 2026-04-20 03:50 | 56.28959 | -3.17023 | 7356 ft | 255 kts | 75° |
| 2026-04-20 03:50 | 56.29358 | -3.13911 | 7355 ft | 255 kts | 75° |
| 2026-04-20 03:50 | 56.29755 | -3.10804 | 7359 ft | 255 kts | 75° |
| 2026-04-20 03:50 | 56.30152 | -3.07694 | 7362 ft | 255 kts | 75° |
| 2026-04-20 03:51 | 56.30404 | -3.04532 | 7357 ft | 257 kts | 92° |
| 2026-04-20 03:51 | 56.29880 | -3.01459 | 7146 ft | 260 kts | 122° |
| 2026-04-20 03:51 | 56.28608 | -2.99189 | 6912 ft | 260 kts | 146° |
| 2026-04-20 03:51 | 56.27100 | -2.97484 | 6660 ft | 259 kts | 149° |
| 2026-04-20 03:52 | 56.25551 | -2.95834 | 6406 ft | 258 kts | 150° |
| 2026-04-20 03:52 | 56.23939 | -2.94459 | 6146 ft | 256 kts | 167° |
| 2026-04-20 03:52 | 56.22184 | -2.94298 | 5896 ft | 252 kts | 192° |
| 2026-04-20 03:52 | 56.20572 | -2.95428 | 5650 ft | 249 kts | 212° |
| 2026-04-20 03:53 | 56.19064 | -2.96953 | 5393 ft | 249 kts | 212° |
| 2026-04-20 03:53 | 56.17574 | -2.98464 | 5148 ft | 243 kts | 211° |
| 2026-04-20 03:53 | 56.16119 | -2.99934 | 4895 ft | 237 kts | 211° |
| 2026-04-20 03:53 | 56.14695 | -3.01368 | 4650 ft | 233 kts | 211° |
| 2026-04-20 03:54 | 56.13294 | -3.02779 | 4398 ft | 229 kts | 211° |
| 2026-04-20 03:54 | 56.11913 | -3.04167 | 4147 ft | 226 kts | 211° |
| 2026-04-20 03:54 | 56.10545 | -3.05540 | 3894 ft | 224 kts | 211° |
| 2026-04-20 03:54 | 56.09196 | -3.06894 | 3649 ft | 221 kts | 211° |
| 2026-04-20 03:55 | 56.07862 | -3.08232 | 3402 ft | 219 kts | 211° |
| 2026-04-20 03:55 | 56.06539 | -3.09559 | 3151 ft | 217 kts | 211° |
| 2026-04-20 03:55 | 56.05244 | -3.10854 | 3022 ft | 209 kts | 210° |
| 2026-04-20 03:55 | 56.04011 | -3.12086 | 3006 ft | 198 kts | 211° |
| 2026-04-20 03:56 | 56.02979 | -3.13630 | 2942 ft | 194 kts | 236° |
| 2026-04-20 03:56 | 56.02257 | -3.15665 | 2695 ft | 192 kts | 241° |
| 2026-04-20 03:56 | 56.01583 | -3.17700 | 2418 ft | 188 kts | 241° |
| 2026-04-20 03:56 | 56.00923 | -3.19674 | 2164 ft | 181 kts | 240° |
| 2026-04-20 03:57 | 56.00294 | -3.21546 | 1950 ft | 169 kts | 240° |
| 2026-04-20 03:57 | 55.99724 | -3.23242 | 1725 ft | 150 kts | 240° |
| 2026-04-20 03:57 | 55.99209 | -3.24772 | 1529 ft | 139 kts | 239° |
| 2026-04-20 03:57 | 55.98723 | -3.26215 | 1357 ft | 133 kts | 239° |
| 2026-04-20 03:58 | 55.98251 | -3.27616 | 1182 ft | 131 kts | 239° |
| 2026-04-20 03:58 | 55.97784 | -3.29000 | 1009 ft | 130 kts | 239° |
| 2026-04-20 03:58 | 55.97321 | -3.30374 | 834 ft | 129 kts | 239° |
| 2026-04-20 03:58 | 55.96859 | -3.31742 | 666 ft | 128 kts | 239° |
| 2026-04-20 03:59 | 55.96398 | -3.33104 | 490 ft | 128 kts | 239° |
| 2026-04-20 03:59 | 55.95942 | -3.34445 | 323 ft | 128 kts | 239° |
| 2026-04-20 03:59 | 55.95483 | -3.35802 | 145 ft | 128 kts | 239° |
| 2026-04-20 03:59 | 55.95072 | -3.37033 | 113 ft | 97 kts | 239° |
| 2026-04-20 04:00 | 55.94813 | -3.37800 | 114 ft | 47 kts | 239° |
| 2026-04-20 04:00 | 55.94728 | -3.38046 | 112 ft | 12 kts | 233° |
| 2026-04-20 04:00 | 55.94688 | -3.38053 | 114 ft | 6 kts | 154° |
| 2026-04-20 04:00 | 55.94658 | -3.38021 | 115 ft | 4 kts | 149° |
| 2026-04-20 04:01 | 55.94641 | -3.38003 | 112 ft | 2 kts | 149° |
| 2026-04-20 04:01 | 55.94632 | -3.37994 | 116 ft | 1 kts | 149° |
| 2026-04-20 04:01 | 55.94630 | -3.37991 | 116 ft | 0 kts | 149° |
| 2026-04-20 04:02 | 55.94614 | -3.37974 | 114 ft | 6 kts | 149° |
| 2026-04-20 04:02 | 55.94590 | -3.37898 | 116 ft | 10 kts | 81° |
| 2026-04-20 04:02 | 55.94626 | -3.37782 | 115 ft | 11 kts | 58° |
| 2026-04-20 04:03 | 55.94662 | -3.37675 | 116 ft | 10 kts | 59° |
| 2026-04-20 04:03 | 55.94695 | -3.37575 | 112 ft | 9 kts | 59° |
| 2026-04-20 04:03 | 55.94732 | -3.37466 | 113 ft | 12 kts | 59° |
| 2026-04-20 04:03 | 55.94784 | -3.37313 | 114 ft | 17 kts | 59° |
| 2026-04-20 04:04 | 55.94851 | -3.37118 | 115 ft | 20 kts | 58° |
| 2026-04-20 04:04 | 55.94911 | -3.36943 | 113 ft | 7 kts | 58° |
| 2026-04-20 04:04 | 55.94929 | -3.36868 | 113 ft | 6 kts | 86° |
| 2026-04-20 04:04 | 55.94907 | -3.36817 | 116 ft | 5 kts | 144° |
| 2026-04-20 04:05 | 55.94894 | -3.36755 | 116 ft | 8 kts | 81° |
| 2026-04-20 04:05 | 55.94923 | -3.36666 | 116 ft | 8 kts | 58° |
| 2026-04-20 04:05 | 55.94951 | -3.36584 | 116 ft | 6 kts | 59° |
| 2026-04-20 04:05 | 55.94943 | -3.36538 | 113 ft | 4 kts | 136° |
| 2026-04-20 04:06 | 55.94922 | -3.36513 | 113 ft | 3 kts | 149° |
| 2026-04-20 04:06 | 55.94908 | -3.36498 | 116 ft | 1 kts | 149° |
| 2026-04-20 04:06 | 55.94904 | -3.36494 | 116 ft | 0 kts | 149° |